Time;durP1;ratioP1;P1;durP2;ratioP2;P2;SDS_P1;SDS_P2;PMS_P1;PMS_P2;Temp;Humidity;BMP_temperature;BMP_pressure;BME280_temperature;BME280_humidity;BME280_pressure;Samples;Min_cycle;Max_cycle;Signal;HPM_P1;HPM_P2
2022/10/21 00:01:37;;;;;;;60.08;20.35;;;;;;;;;;5104275;28;20040;-83
2022/10/21 00:04:04;;;;;;;60.80;20.15;;;;;;;;;;5103751;27;20049;-83
2022/10/21 00:06:30;;;;;;;59.17;20.20;;;;;;;;;;5108363;28;20059;-83
2022/10/21 00:08:56;;;;;;;55.15;20.00;;;;;;;;;;5109520;27;20059;-83
2022/10/21 00:11:23;;;;;;;57.63;21.00;;;;;;;;;;5109021;28;20060;-82
2022/10/21 00:13:49;;;;;;;56.05;19.77;;;;;;;;;;5088635;28;20055;-87
2022/10/21 00:16:17;;;;;;;62.45;20.13;;;;;;;;;;5114555;27;20063;-86
2022/10/21 00:18:44;;;;;;;60.13;19.55;;;;;;;;;;5108535;27;20213;-83
2022/10/21 00:21:11;;;;;;;69.72;22.17;;;;;;;;;;5094729;27;20052;-83
2022/10/21 00:23:38;;;;;;;55.88;19.85;;;;;;;;;;5112694;27;20836;-85
2022/10/21 00:26:04;;;;;;;64.68;20.73;;;;;;;;;;5103185;27;20053;-83
2022/10/21 00:28:31;;;;;;;52.25;20.85;;;;;;;;;;5110865;28;20957;-83
2022/10/21 00:30:57;;;;;;;58.58;22.30;;;;;;;;;;5106729;27;20060;-85
2022/10/21 00:33:24;;;;;;;51.80;21.60;;;;;;;;;;5095047;27;20056;-84
2022/10/21 00:35:51;;;;;;;67.00;21.50;;;;;;;;;;5111645;27;20048;-86
2022/10/21 00:38:18;;;;;;;57.17;21.48;;;;;;;;;;5101783;27;20056;-84
2022/10/21 00:40:44;;;;;;;64.80;21.38;;;;;;;;;;5107523;28;20136;-83
2022/10/21 00:43:11;;;;;;;57.50;22.15;;;;;;;;;;5110914;27;20044;-83
2022/10/21 00:45:37;;;;;;;61.10;22.55;;;;;;;;;;5103683;27;20073;-84
2022/10/21 00:48:06;;;;;;;57.50;21.90;;;;;;;;;;5096353;27;20047;-84
2022/10/21 00:50:35;;;;;;;55.45;20.48;;;;;;;;;;5099455;27;20490;-84
2022/10/21 00:53:09;;;;;;;65.28;21.45;;;;;;;;;;5110871;28;20109;-86
2022/10/21 00:55:41;;;;;;;56.03;19.58;;;;;;;;;;5098313;28;20052;-85
2022/10/21 00:58:07;;;;;;;50.20;19.27;;;;;;;;;;5088325;28;20056;-86
2022/10/21 01:00:34;;;;;;;63.58;19.80;;;;;;;;;;5098884;27;20053;-86
2022/10/21 01:03:00;;;;;;;57.40;20.55;;;;;;;;;;5103546;27;20052;-82
2022/10/21 01:05:26;;;;;;;62.45;21.05;;;;;;;;;;5102771;28;20129;-82
2022/10/21 01:07:53;;;;;;;64.07;20.90;;;;;;;;;;5109066;27;20051;-82
2022/10/21 01:10:19;;;;;;;62.45;20.73;;;;;;;;;;5108346;27;20056;-82
2022/10/21 01:12:51;;;;;;;55.63;20.60;;;;;;;;;;5099575;28;20064;-82
2022/10/21 01:15:44;;;;;;;52.13;20.33;;;;;;;;;;5104091;27;20057;-83
2022/10/21 01:18:21;;;;;;;63.08;21.05;;;;;;;;;;5100964;27;20095;-81
2022/10/21 01:20:56;;;;;;;73.30;21.00;;;;;;;;;;5099974;27;20040;-82
2022/10/21 01:23:41;;;;;;;58.92;20.67;;;;;;;;;;5108925;28;20818;-83
2022/10/21 01:26:16;;;;;;;69.55;20.55;;;;;;;;;;5101834;28;20048;-82
2022/10/21 01:28:43;;;;;;;62.17;20.45;;;;;;;;;;5096798;27;20056;-83
2022/10/21 01:31:14;;;;;;;78.60;20.42;;;;;;;;;;5095530;28;20057;-82
2022/10/21 01:33:45;;;;;;;129.70;23.50;;;;;;;;;;5090568;27;20045;-83
2022/10/21 01:36:24;;;;;;;106.35;22.90;;;;;;;;;;5100567;28;20503;-86
2022/10/21 01:38:59;;;;;;;67.55;19.45;;;;;;;;;;5107038;27;20059;-84
2022/10/21 01:42:04;;;;;;;61.05;19.52;;;;;;;;;;5099954;27;20048;-83
2022/10/21 01:44:42;;;;;;;70.95;20.00;;;;;;;;;;5013981;28;20931;-84
2022/10/21 01:47:11;;;;;;;69.95;20.48;;;;;;;;;;5035606;28;20057;-85
2022/10/21 01:49:41;;;;;;;73.20;20.13;;;;;;;;;;5062685;28;20115;-84
2022/10/21 01:52:07;;;;;;;86.25;20.30;;;;;;;;;;5119489;27;20499;-82
2022/10/21 01:54:39;;;;;;;65.63;18.60;;;;;;;;;;5104517;27;20056;-82
2022/10/21 01:57:06;;;;;;;148.57;22.95;;;;;;;;;;5101737;27;20059;-82
2022/10/21 01:59:33;;;;;;;75.03;20.60;;;;;;;;;;5107858;27;20052;-82
2022/10/21 02:02:01;;;;;;;81.15;19.73;;;;;;;;;;5105287;28;20052;-82
2022/10/21 02:04:28;;;;;;;97.00;20.27;;;;;;;;;;5101007;27;20052;-82
2022/10/21 02:06:54;;;;;;;115.97;22.20;;;;;;;;;;5105567;27;20528;-82
2022/10/21 02:09:20;;;;;;;109.60;22.27;;;;;;;;;;5093779;27;21055;-82
2022/10/21 02:11:49;;;;;;;106.55;21.73;;;;;;;;;;5109211;27;20063;-83
2022/10/21 02:14:18;;;;;;;112.63;22.20;;;;;;;;;;5112899;27;20060;-83
2022/10/21 02:16:45;;;;;;;66.53;18.25;;;;;;;;;;5104598;27;20052;-82
2022/10/21 02:19:13;;;;;;;71.00;20.23;;;;;;;;;;5102547;27;20052;-86
2022/10/21 02:21:40;;;;;;;109.25;21.83;;;;;;;;;;5105477;28;20587;-87
2022/10/21 02:24:19;;;;;;;57.42;17.73;;;;;;;;;;5111553;27;20531;-87
2022/10/21 02:26:45;;;;;;;57.28;19.65;;;;;;;;;;5111040;27;20810;-82
2022/10/21 02:29:12;;;;;;;97.65;20.92;;;;;;;;;;5106293;28;20047;-83
2022/10/21 02:31:58;;;;;;;68.38;21.25;;;;;;;;;;5119106;27;20056;-86
2022/10/21 02:34:35;;;;;;;82.82;20.15;;;;;;;;;;5102105;28;20060;-82
2022/10/21 02:37:02;;;;;;;101.72;21.63;;;;;;;;;;5109168;27;20051;-82
2022/10/21 02:39:33;;;;;;;94.50;20.30;;;;;;;;;;5108287;27;20052;-82
2022/10/21 02:42:01;;;;;;;61.15;18.48;;;;;;;;;;5106822;28;20466;-82
2022/10/21 02:44:27;;;;;;;90.70;19.52;;;;;;;;;;5120536;27;20051;-82
2022/10/21 02:46:53;;;;;;;187.35;23.95;;;;;;;;;;5108346;27;20059;-82
2022/10/21 02:49:20;;;;;;;222.27;25.15;;;;;;;;;;5111108;27;20056;-82
2022/10/21 02:51:46;;;;;;;42.13;16.55;;;;;;;;;;5092679;28;20053;-82
2022/10/21 02:54:12;;;;;;;91.45;20.83;;;;;;;;;;5105662;28;20048;-82
2022/10/21 02:56:38;;;;;;;82.35;19.65;;;;;;;;;;5101762;27;20076;-82
2022/10/21 02:59:05;;;;;;;63.60;17.48;;;;;;;;;;5103920;27;20059;-82
2022/10/21 03:01:31;;;;;;;47.35;15.48;;;;;;;;;;5105869;27;20515;-82
2022/10/21 03:03:57;;;;;;;133.57;20.15;;;;;;;;;;5098325;27;20106;-82
2022/10/21 03:06:23;;;;;;;240.60;24.30;;;;;;;;;;5100158;27;20061;-82
2022/10/21 03:08:50;;;;;;;63.47;18.40;;;;;;;;;;5090712;28;20056;-82
2022/10/21 03:11:16;;;;;;;56.92;17.40;;;;;;;;;;5109982;27;20052;-82
2022/10/21 03:13:42;;;;;;;50.75;17.60;;;;;;;;;;5091986;28;20056;-82
2022/10/21 03:16:09;;;;;;;95.05;19.40;;;;;;;;;;5097484;27;20045;-82
2022/10/21 03:18:35;;;;;;;189.45;25.75;;;;;;;;;;5109632;28;20058;-82
2022/10/21 03:21:01;;;;;;;39.00;15.52;;;;;;;;;;5098753;27;20053;-82
2022/10/21 03:23:28;;;;;;;39.67;15.73;;;;;;;;;;5116728;27;20036;-84
2022/10/21 03:25:54;;;;;;;62.25;17.42;;;;;;;;;;5105960;28;20055;-84
2022/10/21 03:28:20;;;;;;;134.73;21.75;;;;;;;;;;5107050;28;20052;-82
2022/10/21 03:30:46;;;;;;;148.10;21.90;;;;;;;;;;5113129;27;20968;-84
2022/10/21 03:33:13;;;;;;;98.68;20.25;;;;;;;;;;5122754;27;20063;-82
2022/10/21 03:35:39;;;;;;;68.22;17.20;;;;;;;;;;5116623;28;20057;-83
2022/10/21 03:38:05;;;;;;;94.50;16.70;;;;;;;;;;5103330;27;20064;-82
2022/10/21 03:40:31;;;;;;;279.40;25.63;;;;;;;;;;5098876;28;20954;-91
2022/10/21 03:42:58;;;;;;;48.42;15.48;;;;;;;;;;5096787;28;20049;-88
2022/10/21 03:45:25;;;;;;;55.40;16.55;;;;;;;;;;5112679;28;20060;-85
2022/10/21 03:47:51;;;;;;;59.58;20.05;;;;;;;;;;5113509;28;20071;-85
2022/10/21 03:50:18;;;;;;;58.58;18.77;;;;;;;;;;5122615;27;20480;-84
2022/10/21 03:52:51;;;;;;;52.28;18.50;;;;;;;;;;5110663;27;20070;-83
2022/10/21 03:55:19;;;;;;;57.53;17.67;;;;;;;;;;5112532;27;20490;-84
2022/10/21 03:57:46;;;;;;;58.78;19.27;;;;;;;;;;5127717;27;20930;-83
2022/10/21 04:00:13;;;;;;;59.10;16.98;;;;;;;;;;5128698;27;20052;-88
2022/10/21 04:02:39;;;;;;;114.20;18.55;;;;;;;;;;5101121;27;20509;-87
2022/10/21 04:05:06;;;;;;;39.70;14.82;;;;;;;;;;5095475;28;20064;-84
2022/10/21 04:07:32;;;;;;;43.67;15.93;;;;;;;;;;5116349;28;20867;-83
2022/10/21 04:09:58;;;;;;;88.97;18.85;;;;;;;;;;5109922;27;20053;-82
2022/10/21 04:12:25;;;;;;;89.65;18.27;;;;;;;;;;5112531;27;20060;-84
2022/10/21 04:14:51;;;;;;;146.43;18.52;;;;;;;;;;5103758;28;20053;-86
2022/10/21 04:17:17;;;;;;;132.35;19.45;;;;;;;;;;5099914;28;20898;-85
2022/10/21 04:19:44;;;;;;;57.75;15.55;;;;;;;;;;5101831;27;20056;-84
2022/10/21 04:22:10;;;;;;;118.03;17.55;;;;;;;;;;5104573;27;20052;-83
2022/10/21 04:24:36;;;;;;;49.30;13.60;;;;;;;;;;5108207;28;20056;-84
2022/10/21 04:27:03;;;;;;;46.45;14.48;;;;;;;;;;5090235;28;20044;-84
2022/10/21 04:29:29;;;;;;;192.15;23.23;;;;;;;;;;5102334;27;20520;-84
2022/10/21 04:31:55;;;;;;;223.60;22.63;;;;;;;;;;5102298;27;20086;-84
2022/10/21 04:34:22;;;;;;;43.58;13.38;;;;;;;;;;5111799;27;20056;-83
2022/10/21 04:36:48;;;;;;;64.35;16.30;;;;;;;;;;5092452;28;20056;-83
2022/10/21 04:39:14;;;;;;;422.23;30.92;;;;;;;;;;5101191;28;20052;-83
2022/10/21 04:41:41;;;;;;;56.88;14.48;;;;;;;;;;5097167;28;20057;-81
2022/10/21 04:44:07;;;;;;;196.77;21.50;;;;;;;;;;5109033;27;20044;-82
2022/10/21 04:46:33;;;;;;;53.22;15.35;;;;;;;;;;5105621;27;20056;-81
2022/10/21 04:48:59;;;;;;;35.88;13.88;;;;;;;;;;5100782;28;20051;-85
2022/10/21 04:51:26;;;;;;;46.05;14.00;;;;;;;;;;5098130;28;20052;-83
2022/10/21 04:53:52;;;;;;;70.07;15.70;;;;;;;;;;5108777;27;20135;-84
2022/10/21 04:56:18;;;;;;;45.92;14.93;;;;;;;;;;5101954;28;20067;-84
2022/10/21 04:58:45;;;;;;;49.20;14.90;;;;;;;;;;5109522;27;20052;-84
2022/10/21 05:01:11;;;;;;;44.17;16.02;;;;;;;;;;5091869;27;20049;-83
2022/10/21 05:03:37;;;;;;;47.45;15.43;;;;;;;;;;5092354;28;20090;-83
2022/10/21 05:06:04;;;;;;;76.72;17.20;;;;;;;;;;5090776;28;20114;-85
2022/10/21 05:08:30;;;;;;;43.20;14.50;;;;;;;;;;5096388;28;20044;-81
2022/10/21 05:10:58;;;;;;;61.42;15.35;;;;;;;;;;5108604;27;20110;-82
2022/10/21 05:13:24;;;;;;;117.25;18.05;;;;;;;;;;5114145;27;20053;-83
2022/10/21 05:15:50;;;;;;;48.70;13.63;;;;;;;;;;5096602;28;20104;-81
2022/10/21 05:18:17;;;;;;;47.97;12.85;;;;;;;;;;5107886;28;20105;-82
2022/10/21 05:20:48;;;;;;;35.95;12.60;;;;;;;;;;5105894;27;20049;-82
2022/10/21 05:23:15;;;;;;;43.38;13.50;;;;;;;;;;5108010;28;20106;-83
2022/10/21 05:25:42;;;;;;;40.67;13.35;;;;;;;;;;5111359;27;20052;-81
2022/10/21 05:28:09;;;;;;;35.85;13.02;;;;;;;;;;5101331;27;20056;-83
2022/10/21 05:30:35;;;;;;;40.70;14.57;;;;;;;;;;5100527;27;20048;-81
2022/10/21 05:33:01;;;;;;;41.75;13.55;;;;;;;;;;5099151;27;20048;-82
2022/10/21 05:35:28;;;;;;;42.50;14.30;;;;;;;;;;5106089;28;20059;-82
2022/10/21 05:37:54;;;;;;;44.75;15.00;;;;;;;;;;5102718;27;20503;-83
2022/10/21 05:40:20;;;;;;;51.90;15.00;;;;;;;;;;5106101;27;20056;-83
2022/10/21 05:42:47;;;;;;;66.63;14.45;;;;;;;;;;5108451;27;20053;-83
2022/10/21 05:45:13;;;;;;;287.95;25.83;;;;;;;;;;5108713;28;20044;-83
2022/10/21 05:47:40;;;;;;;53.13;14.35;;;;;;;;;;5099954;28;20053;-84
2022/10/21 05:50:07;;;;;;;50.33;13.68;;;;;;;;;;5117708;27;20269;-84
2022/10/21 05:52:33;;;;;;;47.25;14.00;;;;;;;;;;5103925;28;20098;-83
2022/10/21 05:55:00;;;;;;;45.33;14.95;;;;;;;;;;5113578;27;20142;-83
2022/10/21 05:57:26;;;;;;;50.92;14.75;;;;;;;;;;5109980;28;20052;-83
2022/10/21 05:59:52;;;;;;;41.47;13.23;;;;;;;;;;5102736;27;20053;-83
2022/10/21 06:02:19;;;;;;;45.28;13.93;;;;;;;;;;5097024;28;20083;-81
2022/10/21 06:04:45;;;;;;;50.45;14.38;;;;;;;;;;5106493;27;20059;-82
2022/10/21 06:07:11;;;;;;;42.00;12.90;;;;;;;;;;5106752;28;20051;-83
2022/10/21 06:09:38;;;;;;;45.45;14.02;;;;;;;;;;5109813;27;20051;-83
2022/10/21 06:12:05;;;;;;;48.47;12.82;;;;;;;;;;5109086;27;20584;-83
2022/10/21 06:14:31;;;;;;;70.38;15.25;;;;;;;;;;5108103;27;20062;-82
2022/10/21 06:16:58;;;;;;;32.15;11.00;;;;;;;;;;5096287;27;20048;-82
2022/10/21 06:19:24;;;;;;;79.50;13.98;;;;;;;;;;5103776;27;20060;-83
2022/10/21 06:21:50;;;;;;;136.50;16.02;;;;;;;;;;5096965;27;20044;-83
2022/10/21 06:24:17;;;;;;;39.90;11.77;;;;;;;;;;5097394;28;20549;-83
2022/10/21 06:26:43;;;;;;;123.20;15.23;;;;;;;;;;5106650;27;20055;-82
2022/10/21 06:29:09;;;;;;;38.53;11.02;;;;;;;;;;5107007;27;20047;-83
2022/10/21 06:31:35;;;;;;;40.20;11.60;;;;;;;;;;5106567;28;20052;-83
2022/10/21 06:34:02;;;;;;;151.80;16.50;;;;;;;;;;5100255;27;20561;-83
2022/10/21 06:36:29;;;;;;;46.15;12.48;;;;;;;;;;5095073;27;20060;-83
2022/10/21 06:38:55;;;;;;;36.08;11.40;;;;;;;;;;5110200;27;20048;-82
2022/10/21 06:41:21;;;;;;;36.47;11.23;;;;;;;;;;5109088;27;20052;-82
2022/10/21 06:43:48;;;;;;;45.58;11.70;;;;;;;;;;5108267;27;20051;-82
2022/10/21 06:46:14;;;;;;;41.25;12.00;;;;;;;;;;5108932;27;20044;-82
2022/10/21 06:48:41;;;;;;;42.20;11.70;;;;;;;;;;5098895;28;20056;-82
2022/10/21 06:51:08;;;;;;;37.17;11.77;;;;;;;;;;5098279;28;20518;-82
2022/10/21 06:53:35;;;;;;;45.47;13.07;;;;;;;;;;5114477;27;20032;-82
2022/10/21 06:56:08;;;;;;;42.70;12.37;;;;;;;;;;5108226;27;20083;-81
2022/10/21 06:58:36;;;;;;;36.88;11.77;;;;;;;;;;5107730;27;20755;-81
2022/10/21 07:01:09;;;;;;;52.50;13.15;;;;;;;;;;5096298;28;20517;-82
2022/10/21 07:03:55;;;;;;;39.30;11.82;;;;;;;;;;5102042;27;20105;-82
2022/10/21 07:06:21;;;;;;;35.42;13.13;;;;;;;;;;5097435;27;20048;-82
2022/10/21 07:08:48;;;;;;;43.55;13.93;;;;;;;;;;5099008;27;20056;-82
2022/10/21 07:11:24;;;;;;;50.47;13.95;;;;;;;;;;5110815;27;20057;-82
2022/10/21 07:13:50;;;;;;;45.70;13.00;;;;;;;;;;5100758;28;20592;-82
2022/10/21 07:16:37;;;;;;;62.20;17.40;;;;;;;;;;5092641;27;20060;-82
2022/10/21 07:19:04;;;;;;;46.95;14.65;;;;;;;;;;5103762;27;20047;-82
2022/10/21 07:21:30;;;;;;;41.85;13.60;;;;;;;;;;5102108;28;20048;-82
2022/10/21 07:23:57;;;;;;;41.63;12.93;;;;;;;;;;5100920;27;20560;-82
2022/10/21 07:26:25;;;;;;;53.50;15.23;;;;;;;;;;5099266;27;20059;-82
2022/10/21 07:28:53;;;;;;;42.85;14.20;;;;;;;;;;5106018;27;20054;-82
2022/10/21 07:31:20;;;;;;;42.75;15.02;;;;;;;;;;5116884;27;20525;-82
2022/10/21 07:33:47;;;;;;;43.65;15.55;;;;;;;;;;5101086;28;20051;-82
2022/10/21 07:36:18;;;;;;;45.05;15.40;;;;;;;;;;5108545;27;20737;-82
2022/10/21 07:38:45;;;;;;;58.03;16.13;;;;;;;;;;5103254;27;20056;-82
2022/10/21 07:41:13;;;;;;;53.42;16.35;;;;;;;;;;5107527;27;20504;-83
2022/10/21 07:43:39;;;;;;;50.53;16.30;;;;;;;;;;5105420;27;20515;-82
2022/10/21 07:46:05;;;;;;;57.17;16.42;;;;;;;;;;5098886;27;20460;-82
2022/10/21 07:48:32;;;;;;;41.97;15.18;;;;;;;;;;5097896;27;20135;-82
2022/10/21 07:51:03;;;;;;;38.75;14.52;;;;;;;;;;5104820;27;20048;-82
2022/10/21 07:53:29;;;;;;;;;;;;;;;;;;5101623;28;20055;-82
2022/10/21 07:56:25;;;;;;;41.03;15.05;;;;;;;;;;5103624;28;45392;-82
2022/10/21 07:58:51;;;;;;;32.75;12.18;;;;;;;;;;5080822;28;20486;-82
2022/10/21 08:01:18;;;;;;;29.40;12.32;;;;;;;;;;5097144;27;20056;-82
2022/10/21 08:03:45;;;;;;;32.10;13.07;;;;;;;;;;5099811;27;20507;-82
2022/10/21 08:06:12;;;;;;;32.30;11.98;;;;;;;;;;5104466;28;20056;-82
2022/10/21 08:08:39;;;;;;;29.38;11.98;;;;;;;;;;5104408;28;20059;-82
2022/10/21 08:11:06;;;;;;;32.63;13.52;;;;;;;;;;5108768;28;20821;-82
2022/10/21 08:13:33;;;;;;;26.48;11.50;;;;;;;;;;5092825;27;20063;-82
2022/10/21 08:16:00;;;;;;;31.92;12.77;;;;;;;;;;5091994;28;21075;-82
2022/10/21 08:18:27;;;;;;;33.22;12.35;;;;;;;;;;5102982;27;20857;-82
2022/10/21 08:20:54;;;;;;;35.38;12.93;;;;;;;;;;5092674;28;20055;-82
2022/10/21 08:23:21;;;;;;;32.67;13.68;;;;;;;;;;5108943;27;20060;-81
2022/10/21 08:25:48;;;;;;;30.50;12.63;;;;;;;;;;5107159;27;20400;-82
2022/10/21 08:28:15;;;;;;;30.48;12.55;;;;;;;;;;5104265;27;20093;-82
2022/10/21 08:30:41;;;;;;;25.80;12.75;;;;;;;;;;5102602;27;20063;-82
2022/10/21 08:33:08;;;;;;;32.92;13.00;;;;;;;;;;5105071;27;20509;-83
2022/10/21 08:35:34;;;;;;;31.23;12.98;;;;;;;;;;5107580;27;20048;-82
2022/10/21 08:38:00;;;;;;;31.30;12.13;;;;;;;;;;5106542;28;20113;-82
2022/10/21 08:40:28;;;;;;;32.22;12.18;;;;;;;;;;5106114;27;20083;-83
2022/10/21 08:42:54;;;;;;;31.15;12.63;;;;;;;;;;5106772;28;20511;-82
2022/10/21 08:45:24;;;;;;;31.02;13.20;;;;;;;;;;5105910;27;20122;-82
2022/10/21 08:47:53;;;;;;;29.08;12.82;;;;;;;;;;5105717;28;20058;-83
2022/10/21 08:50:34;;;;;;;31.60;12.40;;;;;;;;;;5105816;27;21031;-82
2022/10/21 08:53:03;;;;;;;26.33;12.57;;;;;;;;;;5109143;27;20052;-82
2022/10/21 08:55:29;;;;;;;26.73;11.00;;;;;;;;;;5102471;28;20056;-83
2022/10/21 08:57:55;;;;;;;24.48;11.13;;;;;;;;;;5102606;28;20102;-82
2022/10/21 09:00:23;;;;;;;31.13;12.05;;;;;;;;;;5107697;28;20052;-81
2022/10/21 09:03:19;;;;;;;26.73;12.07;;;;;;;;;;5103347;27;20139;-83
2022/10/21 09:05:48;;;;;;;25.23;11.48;;;;;;;;;;5078863;28;20055;-82
2022/10/21 09:08:27;;;;;;;31.83;12.27;;;;;;;;;;5097462;28;20056;-82
2022/10/21 09:10:53;;;;;;;23.02;11.50;;;;;;;;;;5104696;27;20219;-83
2022/10/21 09:13:49;;;;;;;25.80;11.48;;;;;;;;;;5104634;28;20052;-83
2022/10/21 09:16:15;;;;;;;24.88;11.02;;;;;;;;;;5107717;28;20060;-82
2022/10/21 09:18:46;;;;;;;25.55;11.85;;;;;;;;;;5106154;27;20182;-82
2022/10/21 09:21:13;;;;;;;27.75;12.60;;;;;;;;;;5093918;27;20059;-83
2022/10/21 09:23:43;;;;;;;27.20;11.93;;;;;;;;;;5099847;28;20056;-83
2022/10/21 09:26:30;;;;;;;26.80;12.90;;;;;;;;;;5097953;28;20947;-82
2022/10/21 09:28:56;;;;;;;24.25;11.77;;;;;;;;;;5087691;27;20052;-83
2022/10/21 09:31:22;;;;;;;24.00;11.55;;;;;;;;;;5106023;27;20048;-83
2022/10/21 09:33:53;;;;;;;24.42;11.40;;;;;;;;;;5104246;27;20507;-83
2022/10/21 09:36:19;;;;;;;21.70;10.98;;;;;;;;;;5100592;27;20052;-83
2022/10/21 09:38:50;;;;;;;21.98;10.40;;;;;;;;;;5105002;27;20063;-84
2022/10/21 09:41:19;;;;;;;23.17;11.13;;;;;;;;;;5104634;27;20036;-84
2022/10/21 09:43:51;;;;;;;24.75;12.05;;;;;;;;;;5103965;27;20517;-83
2022/10/21 09:46:17;;;;;;;25.58;10.88;;;;;;;;;;5104542;27;20062;-84
2022/10/21 09:48:45;;;;;;;22.40;10.55;;;;;;;;;;5100112;28;20063;-84
2022/10/21 09:51:32;;;;;;;21.35;10.15;;;;;;;;;;5109703;27;20052;-83
2022/10/21 09:54:10;;;;;;;25.33;10.43;;;;;;;;;;5106352;28;20056;-82
2022/10/21 09:56:43;;;;;;;16.73;9.48;;;;;;;;;;5103956;27;20060;-83
2022/10/21 09:59:15;;;;;;;19.73;9.75;;;;;;;;;;5101753;27;21294;-82
2022/10/21 10:01:44;;;;;;;21.15;8.88;;;;;;;;;;5106869;27;20087;-81
2022/10/21 10:04:21;;;;;;;19.40;9.20;;;;;;;;;;5105031;28;20598;-84
2022/10/21 10:06:47;;;;;;;16.63;8.88;;;;;;;;;;5101784;27;20056;-83
2022/10/21 10:09:27;;;;;;;16.92;8.98;;;;;;;;;;5106994;28;20114;-81
2022/10/21 10:11:57;;;;;;;21.53;9.30;;;;;;;;;;5094701;27;20053;-83
2022/10/21 10:14:33;;;;;;;23.45;9.35;;;;;;;;;;5118528;27;20056;-84
2022/10/21 10:17:18;;;;;;;15.27;7.80;;;;;;;;;;5111324;27;20068;-83
2022/10/21 10:20:03;;;;;;;16.80;8.25;;;;;;;;;;5110535;27;20056;-83
2022/10/21 10:22:30;;;;;;;20.63;9.07;;;;;;;;;;5101526;27;20106;-82
2022/10/21 10:25:27;;;;;;;18.55;7.82;;;;;;;;;;5107729;27;20087;-83
2022/10/21 10:27:58;;;;;;;20.27;8.07;;;;;;;;;;5083010;28;20052;-82
2022/10/21 10:30:25;;;;;;;18.08;7.60;;;;;;;;;;5123489;27;20518;-83
2022/10/21 10:32:53;;;;;;;16.48;7.80;;;;;;;;;;5100869;28;20055;-84
2022/10/21 10:35:30;;;;;;;14.48;7.57;;;;;;;;;;5096227;27;20060;-83
2022/10/21 10:37:58;;;;;;;18.88;7.90;;;;;;;;;;5094317;27;20044;-83
2022/10/21 10:40:27;;;;;;;16.77;7.78;;;;;;;;;;5097902;28;20056;-83
2022/10/21 10:43:00;;;;;;;15.25;7.32;;;;;;;;;;5109983;27;20044;-83
2022/10/21 10:45:26;;;;;;;18.48;8.07;;;;;;;;;;5111499;27;20048;-84
2022/10/21 10:47:54;;;;;;;15.93;7.03;;;;;;;;;;5125995;27;20056;-83
2022/10/21 10:50:36;;;;;;;15.13;7.53;;;;;;;;;;5096309;27;20048;-83
2022/10/21 10:53:11;;;;;;;16.23;6.40;;;;;;;;;;5089410;28;20503;-84
2022/10/21 10:55:41;;;;;;;16.77;6.57;;;;;;;;;;5090811;28;20056;-80
2022/10/21 10:58:08;;;;;;;11.55;6.28;;;;;;;;;;5106971;27;20090;-82
2022/10/21 11:00:43;;;;;;;12.52;6.32;;;;;;;;;;5105895;27;20079;-83
2022/10/21 11:03:13;;;;;;;13.95;5.97;;;;;;;;;;5124925;27;20080;-84
2022/10/21 11:05:44;;;;;;;14.80;6.50;;;;;;;;;;5106747;28;20044;-83
2022/10/21 11:08:10;;;;;;;;;;;;;;;;;;5089807;28;20571;-83
2022/10/21 11:10:39;;;;;;;9.77;5.13;;;;;;;;;;5089290;28;48333;-83
2022/10/21 11:13:11;;;;;;;12.18;5.97;;;;;;;;;;5089723;27;20056;-83
2022/10/21 11:15:37;;;;;;;13.10;5.90;;;;;;;;;;5107551;28;20051;-83
2022/10/21 11:18:10;;;;;;;11.07;5.53;;;;;;;;;;5108814;28;20052;-83
2022/10/21 11:20:49;;;;;;;11.38;5.15;;;;;;;;;;5105658;27;20861;-83
2022/10/21 11:23:34;;;;;;;14.32;5.47;;;;;;;;;;5096533;27;20071;-83
2022/10/21 11:26:21;;;;;;;15.80;5.40;;;;;;;;;;5110138;27;20060;-81
2022/10/21 11:28:53;;;;;;;11.55;5.20;;;;;;;;;;5107390;27;20099;-80
2022/10/21 11:31:30;;;;;;;16.02;5.38;;;;;;;;;;5098910;28;20479;-83
2022/10/21 11:34:01;;;;;;;10.45;5.00;;;;;;;;;;5108047;27;20052;-81
2022/10/21 11:36:34;;;;;;;11.00;5.18;;;;;;;;;;5104969;27;20055;-82
2022/10/21 11:39:06;;;;;;;9.13;4.10;;;;;;;;;;5122454;27;20048;-83
2022/10/21 11:41:42;;;;;;;10.80;4.13;;;;;;;;;;5091234;27;20086;-83
2022/10/21 11:44:27;;;;;;;7.47;3.25;;;;;;;;;;5101133;27;20061;-83
2022/10/21 11:47:12;;;;;;;8.48;3.45;;;;;;;;;;5098326;27;20126;-81
2022/10/21 11:49:44;;;;;;;9.52;3.40;;;;;;;;;;5099022;28;20045;-83
2022/10/21 11:52:17;;;;;;;8.77;3.15;;;;;;;;;;5106620;27;20051;-82
2022/10/21 11:54:51;;;;;;;7.22;3.10;;;;;;;;;;5108670;27;20059;-83
2022/10/21 11:57:38;;;;;;;7.60;3.30;;;;;;;;;;5104282;27;20056;-83
2022/10/21 12:00:05;;;;;;;9.68;3.53;;;;;;;;;;5125956;27;20048;-83
2022/10/21 12:02:40;;;;;;;10.45;2.97;;;;;;;;;;5108855;27;20150;-82
2022/10/21 12:05:17;;;;;;;12.60;3.25;;;;;;;;;;5103780;27;20058;-83
2022/10/21 12:08:02;;;;;;;7.03;2.95;;;;;;;;;;5130847;27;20545;-81
2022/10/21 12:10:29;;;;;;;7.18;2.85;;;;;;;;;;5127248;27;20085;-82
2022/10/21 12:12:58;;;;;;;6.57;3.42;;;;;;;;;;5109694;27;20051;-80
2022/10/21 12:15:33;;;;;;;6.90;3.17;;;;;;;;;;5099309;27;20059;-81
2022/10/21 12:18:02;;;;;;;9.93;3.35;;;;;;;;;;5105375;27;20060;-82
2022/10/21 12:20:29;;;;;;;9.33;3.70;;;;;;;;;;5108355;27;20032;-81
2022/10/21 12:22:59;;;;;;;10.30;3.85;;;;;;;;;;5119291;27;20531;-82
2022/10/21 12:25:36;;;;;;;11.98;4.18;;;;;;;;;;5099851;27;20892;-82
2022/10/21 12:28:21;;;;;;;6.38;3.47;;;;;;;;;;5098208;27;20571;-81
2022/10/21 12:30:57;;;;;;;10.23;3.88;;;;;;;;;;5104824;27;20956;-82
2022/10/21 12:33:23;;;;;;;8.55;3.55;;;;;;;;;;5109301;28;20101;-82
2022/10/21 12:35:52;;;;;;;10.35;3.70;;;;;;;;;;5107867;27;20063;-82
2022/10/21 12:38:25;;;;;;;8.63;3.83;;;;;;;;;;5102760;27;20048;-83
2022/10/21 12:41:11;;;;;;;7.05;3.33;;;;;;;;;;5104636;28;20048;-84
2022/10/21 12:43:37;;;;;;;8.50;3.92;;;;;;;;;;5101365;27;20052;-82
2022/10/21 12:46:08;;;;;;;9.13;4.07;;;;;;;;;;5108807;28;20082;-83
2022/10/21 12:48:37;;;;;;;9.48;3.70;;;;;;;;;;5102248;27;20217;-83
2022/10/21 12:51:05;;;;;;;9.85;3.85;;;;;;;;;;5105574;28;20074;-84
2022/10/21 12:53:31;;;;;;;10.57;3.75;;;;;;;;;;5107508;27;20067;-83
2022/10/21 12:55:58;;;;;;;11.00;3.97;;;;;;;;;;5112692;27;20063;-82
2022/10/21 12:58:40;;;;;;;11.63;3.72;;;;;;;;;;5104045;28;20052;-83
2022/10/21 13:01:26;;;;;;;6.55;3.30;;;;;;;;;;5110040;27;20121;-82
2022/10/21 13:03:54;;;;;;;7.97;3.42;;;;;;;;;;5088438;27;20060;-83
2022/10/21 13:06:39;;;;;;;6.22;2.70;;;;;;;;;;5108730;27;20048;-82
2022/10/21 13:09:25;;;;;;;6.80;2.80;;;;;;;;;;5110777;27;20756;-83
2022/10/21 13:12:08;;;;;;;6.72;3.15;;;;;;;;;;5113504;27;20056;-83
2022/10/21 13:14:41;;;;;;;7.57;2.67;;;;;;;;;;5108622;27;20632;-82
2022/10/21 13:17:19;;;;;;;8.25;2.58;;;;;;;;;;5105022;27;20044;-81
2022/10/21 13:19:46;;;;;;;7.45;2.50;;;;;;;;;;5104190;28;20525;-82
2022/10/21 13:22:20;;;;;;;6.55;2.53;;;;;;;;;;5100687;27;20057;-81
2022/10/21 13:24:47;;;;;;;7.97;2.22;;;;;;;;;;5107681;27;20070;-82
2022/10/21 13:27:30;;;;;;;7.65;2.55;;;;;;;;;;5125585;27;20052;-81
2022/10/21 13:29:57;;;;;;;7.18;2.95;;;;;;;;;;5120283;27;20070;-82
2022/10/21 13:32:24;;;;;;;8.88;2.20;;;;;;;;;;5109599;27;20487;-81
2022/10/21 13:34:55;;;;;;;4.55;2.10;;;;;;;;;;5099787;27;20135;-81
2022/10/21 13:37:28;;;;;;;10.27;2.40;;;;;;;;;;5104828;27;20056;-80
2022/10/21 13:39:55;;;;;;;8.73;2.38;;;;;;;;;;5111516;27;20063;-82
2022/10/21 13:42:21;;;;;;;7.35;2.63;;;;;;;;;;5101748;27;20052;-81
2022/10/21 13:44:51;;;;;;;7.65;2.50;;;;;;;;;;5109866;27;20097;-81
2022/10/21 13:47:31;;;;;;;5.78;2.33;;;;;;;;;;5102496;28;20052;-81
2022/10/21 13:50:00;;;;;;;6.63;2.30;;;;;;;;;;5099445;28;20890;-80
2022/10/21 13:52:27;;;;;;;7.65;2.45;;;;;;;;;;5114393;28;20055;-81
2022/10/21 13:54:58;;;;;;;7.10;2.40;;;;;;;;;;5113404;27;20059;-81
2022/10/21 13:57:29;;;;;;;8.18;2.55;;;;;;;;;;5112611;27;20060;-82
2022/10/21 14:00:04;;;;;;;8.10;2.17;;;;;;;;;;5107738;27;20047;-81
2022/10/21 14:02:30;;;;;;;9.13;2.40;;;;;;;;;;5108199;27;20056;-82
2022/10/21 14:04:56;;;;;;;8.55;2.28;;;;;;;;;;5099321;27;20057;-81
2022/10/21 14:07:23;;;;;;;5.05;2.30;;;;;;;;;;5108794;28;20871;-81
2022/10/21 14:09:50;;;;;;;4.95;2.35;;;;;;;;;;5110954;27;20117;-81
2022/10/21 14:12:22;;;;;;;9.18;2.22;;;;;;;;;;5117364;27;20051;-81
2022/10/21 14:14:49;;;;;;;8.23;2.30;;;;;;;;;;5109088;28;20052;-82
2022/10/21 14:17:17;;;;;;;6.55;2.50;;;;;;;;;;5110947;27;20048;-82
2022/10/21 14:19:49;;;;;;;8.70;2.78;;;;;;;;;;5116891;27;20149;-82
2022/10/21 14:22:21;;;;;;;6.93;2.83;;;;;;;;;;5102746;27;20056;-82
2022/10/21 14:24:48;;;;;;;11.10;2.47;;;;;;;;;;5102477;28;20047;-82
2022/10/21 14:27:19;;;;;;;7.25;2.20;;;;;;;;;;5106506;27;20064;-82
2022/10/21 14:29:46;;;;;;;6.88;2.90;;;;;;;;;;5107201;27;20814;-82
2022/10/21 14:32:13;;;;;;;5.43;2.50;;;;;;;;;;5100817;27;20122;-81
2022/10/21 14:34:58;;;;;;;5.38;2.17;;;;;;;;;;5117339;27;20537;-82
2022/10/21 14:37:24;;;;;;;5.53;2.45;;;;;;;;;;5132574;27;20048;-81
2022/10/21 14:39:51;;;;;;;7.18;2.75;;;;;;;;;;5107393;27;20052;-82